Time;durP1;ratioP1;P1;durP2;ratioP2;P2;SDS_P1;SDS_P2;PMS_P1;PMS_P2;Temp;Humidity;BMP_temperature;BMP_pressure;BME280_temperature;BME280_humidity;BME280_pressure;Samples;Min_cycle;Max_cycle;Signal;HPM_P1;HPM_P2
2022/05/03 00:02:11;;;;;;;8.20;4.63;;;;;;;;;;5021643;28;20087;-64
2022/05/03 00:05:09;;;;;;;9.10;4.65;;;;;;;;;;5011504;28;20048;-64
2022/05/03 00:07:52;;;;;;;7.07;4.30;;;;;;;;;;4989162;28;20590;-64
2022/05/03 00:10:24;;;;;;;7.28;4.70;;;;;;;;;;4990082;28;20038;-64
2022/05/03 00:13:09;;;;;;;8.27;4.38;;;;;;;;;;4990353;28;20029;-64
2022/05/03 00:15:36;;;;;;;6.00;4.65;;;;;;;;;;4989746;28;20577;-64
2022/05/03 00:18:03;;;;;;;11.68;5.20;;;;;;;;;;4990144;28;20042;-64
2022/05/03 00:20:29;;;;;;;6.35;4.18;;;;;;;;;;4998082;28;20031;-64
2022/05/03 00:22:56;;;;;;;7.03;4.65;;;;;;;;;;4988084;28;20030;-64
2022/05/03 00:25:22;;;;;;;7.32;4.53;;;;;;;;;;4988909;28;20074;-64
2022/05/03 00:27:48;;;;;;;7.30;4.75;;;;;;;;;;4989300;28;20030;-64
2022/05/03 00:30:14;;;;;;;6.15;4.30;;;;;;;;;;4989585;28;20031;-64
2022/05/03 00:32:40;;;;;;;9.07;4.85;;;;;;;;;;4989418;28;20058;-64
2022/05/03 00:35:08;;;;;;;9.20;5.40;;;;;;;;;;4989603;28;20030;-65
2022/05/03 00:37:34;;;;;;;6.95;5.00;;;;;;;;;;4988375;28;20046;-64
2022/05/03 00:40:00;;;;;;;11.30;5.32;;;;;;;;;;4990051;28;20546;-64
2022/05/03 00:42:30;;;;;;;9.77;4.65;;;;;;;;;;4996826;28;20068;-65
2022/05/03 00:45:09;;;;;;;7.60;5.57;;;;;;;;;;5032278;28;20033;-64
2022/05/03 00:47:38;;;;;;;6.00;4.83;;;;;;;;;;5023893;28;20121;-64
2022/05/03 00:50:07;;;;;;;9.38;4.68;;;;;;;;;;5031666;28;20028;-64
2022/05/03 00:52:37;;;;;;;8.65;4.80;;;;;;;;;;5022919;28;20030;-63
2022/05/03 00:55:15;;;;;;;11.68;5.57;;;;;;;;;;5031747;28;20029;-64
2022/05/03 00:57:41;;;;;;;9.02;5.30;;;;;;;;;;5031452;28;20032;-64
2022/05/03 01:00:11;;;;;;;7.90;5.18;;;;;;;;;;5030022;28;20022;-64
2022/05/03 01:02:56;;;;;;;6.93;5.10;;;;;;;;;;5031461;28;20463;-64
2022/05/03 01:05:42;;;;;;;7.60;4.68;;;;;;;;;;5030885;28;20029;-64
2022/05/03 01:08:12;;;;;;;9.77;5.18;;;;;;;;;;5021378;28;20049;-64
2022/05/03 01:11:01;;;;;;;9.38;5.80;;;;;;;;;;5031044;28;20501;-64
2022/05/03 01:13:34;;;;;;;8.50;5.03;;;;;;;;;;5020462;28;20021;-64
2022/05/03 01:16:04;;;;;;;9.50;4.90;;;;;;;;;;5012535;28;20032;-64
2022/05/03 01:18:56;;;;;;;7.22;4.93;;;;;;;;;;5031073;28;20079;-64
2022/05/03 01:21:42;;;;;;;8.55;5.00;;;;;;;;;;5005973;28;20046;-66
2022/05/03 01:24:28;;;;;;;8.93;5.25;;;;;;;;;;5030803;28;20104;-65
2022/05/03 01:26:57;;;;;;;8.75;5.55;;;;;;;;;;5030701;28;20095;-64
2022/05/03 01:29:30;;;;;;;8.68;5.60;;;;;;;;;;5012149;28;20033;-65
2022/05/03 01:32:00;;;;;;;9.90;5.28;;;;;;;;;;5030967;28;20033;-64
2022/05/03 01:34:26;;;;;;;10.07;6.10;;;;;;;;;;5029173;28;20037;-64
2022/05/03 01:37:05;;;;;;;9.30;6.15;;;;;;;;;;5029284;28;20021;-65
2022/05/03 01:39:34;;;;;;;10.48;5.63;;;;;;;;;;5022901;28;20049;-64
2022/05/03 01:42:12;;;;;;;9.88;5.35;;;;;;;;;;5032315;28;20402;-64
2022/05/03 01:44:55;;;;;;;10.02;5.40;;;;;;;;;;5032532;28;20060;-63
2022/05/03 01:50:33;;;;;;;7.47;5.40;;;;;;;;;;5033565;28;20031;-64
2022/05/03 01:53:00;;;;;;;8.02;5.13;;;;;;;;;;5012732;28;20033;-64
2022/05/03 01:55:26;;;;;;;8.20;5.78;;;;;;;;;;5029755;28;20226;-65
2022/05/03 01:57:52;;;;;;;6.28;4.60;;;;;;;;;;5030748;28;20072;-63
2022/05/03 02:00:20;;;;;;;11.77;5.70;;;;;;;;;;5010659;28;20029;-64
2022/05/03 02:02:58;;;;;;;6.35;4.50;;;;;;;;;;5030256;28;20025;-64
2022/05/03 02:05:34;;;;;;;8.73;5.53;;;;;;;;;;5031200;28;20483;-64
2022/05/03 02:08:00;;;;;;;8.75;4.85;;;;;;;;;;5028548;28;20025;-64
2022/05/03 02:10:38;;;;;;;9.57;5.65;;;;;;;;;;5028419;28;20065;-64
2022/05/03 02:13:14;;;;;;;8.80;5.55;;;;;;;;;;5030175;28;20017;-64
2022/05/03 02:15:40;;;;;;;7.57;5.47;;;;;;;;;;5029343;28;20076;-64
2022/05/03 02:18:25;;;;;;;7.60;5.43;;;;;;;;;;5029180;28;20045;-65
2022/05/03 02:20:51;;;;;;;9.93;5.90;;;;;;;;;;5030147;28;20036;-64
2022/05/03 02:23:17;;;;;;;12.25;5.32;;;;;;;;;;5029517;28;20029;-64
2022/05/03 02:25:46;;;;;;;10.57;5.72;;;;;;;;;;5028753;28;20025;-64
2022/05/03 02:28:18;;;;;;;7.82;5.57;;;;;;;;;;5029754;28;20052;-64
2022/05/03 02:30:46;;;;;;;9.15;5.40;;;;;;;;;;5029461;28;20076;-64
2022/05/03 02:33:21;;;;;;;7.25;5.10;;;;;;;;;;5030112;28;20607;-64
2022/05/03 02:35:49;;;;;;;13.15;5.30;;;;;;;;;;5011827;28;20021;-64
2022/05/03 02:38:20;;;;;;;7.57;5.13;;;;;;;;;;5028621;28;20025;-64
2022/05/03 02:40:47;;;;;;;7.85;5.47;;;;;;;;;;5029656;28;20028;-64
2022/05/03 02:43:17;;;;;;;7.50;5.05;;;;;;;;;;5028054;28;20023;-65
2022/05/03 02:45:50;;;;;;;8.23;5.78;;;;;;;;;;5029490;28;20044;-64
2022/05/03 02:48:25;;;;;;;7.05;5.10;;;;;;;;;;5029872;28;20034;-64
2022/05/03 02:50:56;;;;;;;7.20;5.10;;;;;;;;;;5029268;28;20025;-64
2022/05/03 02:53:36;;;;;;;14.18;5.53;;;;;;;;;;5028811;28;20030;-64
2022/05/03 02:56:11;;;;;;;7.68;5.45;;;;;;;;;;5007898;28;20483;-64
2022/05/03 02:58:53;;;;;;;10.27;5.25;;;;;;;;;;5021599;28;20028;-65
2022/05/03 03:04:11;;;;;;;8.13;5.28;;;;;;;;;;5029834;28;20088;-65
2022/05/03 03:06:38;;;;;;;11.00;5.55;;;;;;;;;;5028968;28;20024;-64
2022/05/03 03:09:04;;;;;;;9.15;4.63;;;;;;;;;;5028381;28;20486;-64
2022/05/03 03:11:48;;;;;;;7.85;5.13;;;;;;;;;;5029541;28;20026;-64
2022/05/03 03:14:21;;;;;;;6.68;4.93;;;;;;;;;;5029543;28;20045;-64
2022/05/03 03:16:55;;;;;;;7.82;6.00;;;;;;;;;;5029032;28;20022;-64
2022/05/03 03:19:21;;;;;;;8.63;5.95;;;;;;;;;;5009192;28;20026;-64
2022/05/03 03:21:49;;;;;;;8.70;5.43;;;;;;;;;;5008296;28;20021;-64
2022/05/03 03:24:16;;;;;;;9.07;5.57;;;;;;;;;;5054632;23;20045;-69
2022/05/03 03:26:44;;;;;;;8.65;5.97;;;;;;;;;;5059969;28;20543;-68
2022/05/03 03:29:11;;;;;;;12.23;5.85;;;;;;;;;;5060104;28;20024;-68
2022/05/03 03:31:37;;;;;;;8.27;5.35;;;;;;;;;;5050066;28;20032;-68
2022/05/03 03:34:05;;;;;;;8.65;5.57;;;;;;;;;;5042772;28;20036;-68
2022/05/03 03:36:32;;;;;;;10.85;5.20;;;;;;;;;;5053824;28;20031;-68
2022/05/03 03:38:58;;;;;;;9.30;5.57;;;;;;;;;;5046891;28;20027;-68
2022/05/03 03:41:24;;;;;;;10.00;5.70;;;;;;;;;;5053779;28;20054;-69
2022/05/03 03:43:52;;;;;;;12.25;5.60;;;;;;;;;;5037934;28;20032;-68
2022/05/03 03:46:17;;;;;;;9.95;6.07;;;;;;;;;;5055303;28;20446;-67
2022/05/03 03:48:44;;;;;;;12.02;5.68;;;;;;;;;;5059145;28;20162;-67
2022/05/03 03:51:11;;;;;;;8.18;5.68;;;;;;;;;;5050926;28;20059;-67
2022/05/03 03:53:38;;;;;;;7.88;4.97;;;;;;;;;;5032317;28;20072;-67
2022/05/03 03:56:04;;;;;;;7.07;5.15;;;;;;;;;;5042092;28;20056;-67
2022/05/03 03:58:30;;;;;;;12.10;5.72;;;;;;;;;;5034377;28;20450;-68
2022/05/03 04:00:56;;;;;;;9.63;5.40;;;;;;;;;;5034075;28;20024;-68
2022/05/03 04:03:24;;;;;;;7.88;5.22;;;;;;;;;;5048748;28;20155;-68
2022/05/03 04:05:50;;;;;;;8.80;5.80;;;;;;;;;;5053763;28;20422;-68
2022/05/03 04:08:16;;;;;;;12.02;5.65;;;;;;;;;;5052122;28;20025;-68
2022/05/03 04:10:43;;;;;;;9.40;6.07;;;;;;;;;;5029337;28;20356;-68
2022/05/03 04:13:13;;;;;;;9.75;5.72;;;;;;;;;;5060825;28;20496;-67
2022/05/03 04:15:40;;;;;;;12.95;5.88;;;;;;;;;;5053981;28;20086;-68
2022/05/03 04:18:08;;;;;;;8.93;5.88;;;;;;;;;;5055699;28;20021;-67
2022/05/03 04:20:35;;;;;;;9.35;5.93;;;;;;;;;;5030643;28;20759;-68
2022/05/03 04:23:01;;;;;;;9.10;5.90;;;;;;;;;;5045848;28;20020;-68
2022/05/03 04:25:28;;;;;;;11.88;6.15;;;;;;;;;;5053440;28;20036;-67
2022/05/03 04:27:54;;;;;;;8.10;5.43;;;;;;;;;;5055678;28;20107;-68
2022/05/03 04:30:20;;;;;;;8.77;6.00;;;;;;;;;;5027184;28;20028;-68
2022/05/03 04:32:46;;;;;;;9.20;6.10;;;;;;;;;;5045866;28;20052;-68
2022/05/03 04:35:12;;;;;;;7.72;5.40;;;;;;;;;;5048815;28;20108;-67
2022/05/03 04:37:41;;;;;;;11.00;6.47;;;;;;;;;;5050856;28;20060;-68
2022/05/03 04:40:07;;;;;;;11.60;7.43;;;;;;;;;;5033230;28;20033;-68
2022/05/03 04:42:33;;;;;;;9.70;6.07;;;;;;;;;;5051775;28;20119;-68
2022/05/03 04:44:59;;;;;;;8.80;5.75;;;;;;;;;;5033883;28;20121;-68
2022/05/03 04:47:25;;;;;;;10.50;6.10;;;;;;;;;;5032564;28;20085;-68
2022/05/03 04:49:51;;;;;;;12.70;6.18;;;;;;;;;;5034052;28;20021;-67
2022/05/03 04:52:17;;;;;;;8.93;6.38;;;;;;;;;;5025723;28;20025;-68
2022/05/03 04:54:43;;;;;;;7.47;5.70;;;;;;;;;;5030971;28;20113;-68
2022/05/03 04:57:09;;;;;;;10.50;5.85;;;;;;;;;;5060995;28;20477;-67
2022/05/03 04:59:40;;;;;;;8.50;5.80;;;;;;;;;;5055385;28;20024;-67
2022/05/03 05:02:06;;;;;;;8.32;6.05;;;;;;;;;;5056187;28;20020;-67
2022/05/03 05:04:32;;;;;;;13.68;6.43;;;;;;;;;;5062685;28;20090;-68
2022/05/03 05:06:58;;;;;;;9.38;5.82;;;;;;;;;;5037507;28;20466;-67
2022/05/03 05:09:24;;;;;;;11.45;6.72;;;;;;;;;;5032281;28;20033;-70
2022/05/03 05:11:50;;;;;;;12.30;6.32;;;;;;;;;;5051704;28;20048;-69
2022/05/03 05:14:19;;;;;;;8.93;6.05;;;;;;;;;;5050812;28;20395;-68
2022/05/03 05:16:45;;;;;;;8.47;5.37;;;;;;;;;;5032191;28;20478;-67
2022/05/03 05:19:11;;;;;;;9.13;5.53;;;;;;;;;;5033081;28;20370;-68
2022/05/03 05:21:38;;;;;;;10.00;5.60;;;;;;;;;;5033453;28;20569;-68
2022/05/03 05:24:04;;;;;;;12.45;5.68;;;;;;;;;;5040698;28;20166;-68
2022/05/03 05:26:30;;;;;;;13.73;6.45;;;;;;;;;;5057603;28;20037;-68
2022/05/03 05:28:57;;;;;;;16.00;6.03;;;;;;;;;;5033360;28;20448;-67
2022/05/03 05:31:23;;;;;;;12.10;6.40;;;;;;;;;;5043263;28;20477;-67
2022/05/03 05:33:49;;;;;;;9.82;6.43;;;;;;;;;;5053488;28;20067;-67
2022/05/03 05:36:15;;;;;;;9.52;5.85;;;;;;;;;;5041167;28;20021;-68
2022/05/03 05:38:41;;;;;;;7.07;5.38;;;;;;;;;;5040840;28;20454;-68
2022/05/03 05:41:14;;;;;;;11.70;5.75;;;;;;;;;;5049824;28;20027;-68
2022/05/03 05:43:41;;;;;;;21.50;7.28;;;;;;;;;;5052085;28;20496;-68
2022/05/03 05:46:08;;;;;;;10.80;6.53;;;;;;;;;;5031719;28;20059;-68
2022/05/03 05:48:34;;;;;;;10.25;5.28;;;;;;;;;;5053921;28;20548;-67
2022/05/03 05:51:00;;;;;;;8.38;6.25;;;;;;;;;;5037032;28;20470;-68
2022/05/03 05:53:31;;;;;;;9.23;5.97;;;;;;;;;;5031753;28;20029;-67
2022/05/03 05:55:58;;;;;;;10.18;6.32;;;;;;;;;;5047005;28;20457;-67
2022/05/03 05:58:24;;;;;;;9.52;6.25;;;;;;;;;;5050728;28;20021;-68
2022/05/03 06:00:50;;;;;;;10.35;6.95;;;;;;;;;;5032661;28;20334;-68
2022/05/03 06:03:16;;;;;;;11.85;6.15;;;;;;;;;;5066963;28;20071;-67
2022/05/03 06:05:45;;;;;;;10.82;7.03;;;;;;;;;;5031532;28;20058;-67
2022/05/03 06:08:11;;;;;;;12.57;7.25;;;;;;;;;;5032324;28;20028;-67
2022/05/03 06:10:37;;;;;;;16.85;7.45;;;;;;;;;;5049352;28;20025;-67
2022/05/03 06:13:04;;;;;;;13.43;7.07;;;;;;;;;;5049478;28;20033;-68
2022/05/03 06:15:30;;;;;;;11.68;6.25;;;;;;;;;;5042993;28;20055;-68
2022/05/03 06:17:56;;;;;;;10.50;6.63;;;;;;;;;;5036785;28;20059;-68
2022/05/03 06:20:22;;;;;;;10.85;7.00;;;;;;;;;;5047221;28;20021;-67
2022/05/03 06:22:49;;;;;;;16.85;7.65;;;;;;;;;;5043769;28;20168;-68
2022/05/03 06:25:16;;;;;;;11.18;7.03;;;;;;;;;;5021806;28;20069;-67
2022/05/03 06:27:42;;;;;;;12.30;7.70;;;;;;;;;;5018954;28;20048;-68
2022/05/03 06:30:08;;;;;;;19.77;7.97;;;;;;;;;;5030239;28;20095;-70
2022/05/03 06:32:39;;;;;;;14.20;7.63;;;;;;;;;;5030454;28;20029;-67
2022/05/03 06:35:07;;;;;;;16.65;8.65;;;;;;;;;;5012369;28;20021;-68
2022/05/03 06:37:36;;;;;;;15.20;8.55;;;;;;;;;;5011407;28;20029;-68
2022/05/03 06:40:03;;;;;;;14.32;8.05;;;;;;;;;;5029171;28;20024;-67
2022/05/03 06:42:29;;;;;;;15.65;8.70;;;;;;;;;;5012233;28;20478;-68
2022/05/03 06:44:59;;;;;;;15.82;8.23;;;;;;;;;;5012515;28;20028;-68
2022/05/03 06:47:27;;;;;;;18.35;8.70;;;;;;;;;;5027756;28;20032;-68
2022/05/03 06:49:53;;;;;;;15.60;9.00;;;;;;;;;;5012800;28;20120;-67
2022/05/03 06:52:53;;;;;;;17.73;8.52;;;;;;;;;;5033044;28;20032;-67
2022/05/03 06:55:19;;;;;;;13.20;8.60;;;;;;;;;;5027799;28;20033;-68
2022/05/03 06:57:45;;;;;;;19.70;9.00;;;;;;;;;;5029511;28;20166;-67
2022/05/03 07:00:11;;;;;;;14.70;9.50;;;;;;;;;;5012220;28;20497;-67
2022/05/03 07:02:38;;;;;;;26.55;10.07;;;;;;;;;;5011915;28;20021;-68
2022/05/03 07:05:04;;;;;;;17.05;9.85;;;;;;;;;;5012276;28;20116;-68
2022/05/03 07:07:30;;;;;;;15.20;9.95;;;;;;;;;;5015680;28;20075;-68
2022/05/03 07:09:58;;;;;;;16.52;10.18;;;;;;;;;;5015824;28;20769;-68
2022/05/03 07:12:24;;;;;;;19.30;11.10;;;;;;;;;;5032538;28;20281;-67
2022/05/03 07:14:50;;;;;;;18.73;10.95;;;;;;;;;;5015730;28;20028;-67
2022/05/03 07:22:46;;;;;;;16.85;10.13;;;;;;;;;;5033764;28;20067;-68
2022/05/03 07:25:16;;;;;;;23.48;11.13;;;;;;;;;;5039893;28;20025;-68
2022/05/03 07:27:43;;;;;;;20.90;12.25;;;;;;;;;;5034270;28;20044;-68
2022/05/03 07:30:09;;;;;;;24.10;12.70;;;;;;;;;;5061186;28;20054;-67
2022/05/03 07:32:35;;;;;;;19.85;12.35;;;;;;;;;;5060751;28;20025;-68
2022/05/03 07:35:01;;;;;;;23.20;13.75;;;;;;;;;;5053102;28;20050;-68
2022/05/03 07:37:27;;;;;;;24.73;13.57;;;;;;;;;;5034625;28;20166;-67
2022/05/03 07:39:53;;;;;;;23.17;14.32;;;;;;;;;;5061579;28;20021;-68
2022/05/03 07:42:19;;;;;;;26.08;14.45;;;;;;;;;;5056193;28;20443;-67
2022/05/03 07:44:45;;;;;;;29.23;12.10;;;;;;;;;;5055468;28;20044;-68
2022/05/03 07:47:11;;;;;;;11.63;7.45;;;;;;;;;;5054804;28;20178;-68
2022/05/03 07:49:37;;;;;;;15.13;8.35;;;;;;;;;;5053036;28;20017;-68
2022/05/03 07:52:05;;;;;;;17.48;8.85;;;;;;;;;;5035580;28;20714;-68
2022/05/03 07:54:31;;;;;;;9.00;6.50;;;;;;;;;;5034975;28;20393;-68
2022/05/03 07:56:57;;;;;;;11.13;6.93;;;;;;;;;;5057277;28;20117;-67
2022/05/03 07:59:25;;;;;;;10.00;6.43;;;;;;;;;;5052690;28;20031;-68
2022/05/03 08:01:51;;;;;;;11.75;7.55;;;;;;;;;;5034821;28;20029;-68
2022/05/03 08:04:17;;;;;;;16.40;7.18;;;;;;;;;;5061295;28;20506;-67
2022/05/03 08:06:43;;;;;;;11.48;6.97;;;;;;;;;;5058951;28;20017;-68
2022/05/03 08:09:10;;;;;;;14.30;7.10;;;;;;;;;;5042389;28;20500;-68
2022/05/03 08:11:36;;;;;;;17.20;8.27;;;;;;;;;;5059208;28;20466;-68
2022/05/03 08:14:02;;;;;;;13.30;7.43;;;;;;;;;;5052253;28;20064;-68
2022/05/03 08:16:30;;;;;;;15.00;7.90;;;;;;;;;;5034457;28;20044;-68
2022/05/03 08:18:57;;;;;;;13.18;6.28;;;;;;;;;;5052027;28;20425;-68
2022/05/03 08:21:23;;;;;;;11.98;7.03;;;;;;;;;;5052337;28;20029;-68
2022/05/03 08:23:49;;;;;;;13.80;7.93;;;;;;;;;;5029063;28;20030;-68
2022/05/03 08:26:15;;;;;;;12.40;7.03;;;;;;;;;;5044343;28;20059;-68
2022/05/03 08:28:42;;;;;;;13.35;7.57;;;;;;;;;;5034016;28;20021;-68
2022/05/03 08:31:11;;;;;;;12.80;6.70;;;;;;;;;;5032982;28;20033;-68
2022/05/03 08:33:37;;;;;;;15.15;7.78;;;;;;;;;;5060150;28;20021;-68
2022/05/03 08:36:04;;;;;;;13.32;7.40;;;;;;;;;;5052082;28;20021;-69
2022/05/03 08:44:00;;;;;;;16.90;8.32;;;;;;;;;;5060290;28;20437;-68
2022/05/03 08:46:26;;;;;;;13.05;7.80;;;;;;;;;;5059787;28;20017;-69
2022/05/03 08:48:58;;;;;;;14.10;7.78;;;;;;;;;;5048933;28;20036;-68
2022/05/03 08:51:24;;;;;;;16.33;8.90;;;;;;;;;;5034892;28;20025;-70
2022/05/03 08:53:50;;;;;;;13.02;6.75;;;;;;;;;;5054139;28;20025;-68
2022/05/03 08:56:20;;;;;;;10.75;6.80;;;;;;;;;;5047729;28;20028;-68
2022/05/03 08:58:47;;;;;;;10.20;6.82;;;;;;;;;;5051630;28;20056;-68
2022/05/03 09:01:13;;;;;;;10.82;6.75;;;;;;;;;;5033576;28;20009;-68
2022/05/03 09:03:39;;;;;;;13.25;7.22;;;;;;;;;;5063215;28;20017;-69
2022/05/03 09:06:05;;;;;;;10.18;5.63;;;;;;;;;;5053640;28;20066;-68
2022/05/03 09:08:32;;;;;;;7.20;5.00;;;;;;;;;;5054115;28;20643;-69
2022/05/03 09:10:59;;;;;;;9.57;5.55;;;;;;;;;;5038233;28;20021;-69
2022/05/03 09:13:27;;;;;;;6.45;4.93;;;;;;;;;;5049810;28;20051;-69
2022/05/03 09:15:57;;;;;;;5.82;4.10;;;;;;;;;;5065083;28;20027;-68
2022/05/03 09:18:27;;;;;;;8.77;5.20;;;;;;;;;;5062494;28;20039;-69
2022/05/03 09:23:51;;;;;;;13.88;6.10;;;;;;;;;;5058957;28;20154;-68
2022/05/03 09:26:21;;;;;;;11.40;5.78;;;;;;;;;;5058165;28;20037;-69
2022/05/03 09:28:55;;;;;;;12.35;5.40;;;;;;;;;;5049021;28;20048;-69
2022/05/03 09:31:33;;;;;;;6.63;4.25;;;;;;;;;;5032878;28;20021;-69
2022/05/03 09:34:00;;;;;;;7.82;5.22;;;;;;;;;;5032823;28;20032;-69
2022/05/03 09:36:26;;;;;;;9.52;5.60;;;;;;;;;;5058776;28;20028;-68
2022/05/03 09:38:54;;;;;;;10.48;6.63;;;;;;;;;;5036953;28;20077;-69
2022/05/03 09:41:21;;;;;;;15.35;5.25;;;;;;;;;;5058542;28;20230;-69
2022/05/03 09:44:05;;;;;;;7.28;4.95;;;;;;;;;;5031884;28;20070;-69
2022/05/03 09:46:49;;;;;;;8.45;5.72;;;;;;;;;;5050217;28;20033;-69
2022/05/03 09:49:17;;;;;;;9.00;5.32;;;;;;;;;;5050244;28;20432;-68
2022/05/03 09:51:43;;;;;;;9.18;4.82;;;;;;;;;;5055008;28;20028;-68
2022/05/03 09:54:10;;;;;;;8.05;5.45;;;;;;;;;;5044069;28;20501;-69
2022/05/03 09:56:37;;;;;;;6.25;4.43;;;;;;;;;;5041627;28;20036;-69
2022/05/03 09:59:04;;;;;;;7.13;5.20;;;;;;;;;;5049506;28;20051;-68
2022/05/03 10:01:30;;;;;;;7.60;5.00;;;;;;;;;;5057972;28;20037;-69
2022/05/03 10:03:57;;;;;;;8.77;4.30;;;;;;;;;;5056675;28;20024;-68
2022/05/03 10:06:23;;;;;;;6.88;4.45;;;;;;;;;;5052816;28;20021;-68
2022/05/03 10:08:51;;;;;;;11.40;5.05;;;;;;;;;;5038487;28;20029;-68
2022/05/03 10:11:46;;;;;;;6.35;4.15;;;;;;;;;;5016977;28;20498;-68
2022/05/03 10:14:11;;;;;;;6.35;4.40;;;;;;;;;;5021984;28;20446;-68
2022/05/03 10:22:07;;;;;;;11.70;6.97;;;;;;;;;;5061844;28;20043;-69
2022/05/03 10:24:52;;;;;;;7.20;4.97;;;;;;;;;;5045747;28;20029;-69
2022/05/03 10:28:00;;;;;;;9.65;4.70;;;;;;;;;;4960101;28;20089;-68
2022/05/03 10:30:28;;;;;;;8.48;4.95;;;;;;;;;;4987663;28;20058;-68
2022/05/03 10:33:14;;;;;;;11.60;4.78;;;;;;;;;;4987774;28;20057;-68
2022/05/03 10:35:40;;;;;;;9.25;5.95;;;;;;;;;;4989405;28;20638;-68
2022/05/03 10:38:06;;;;;;;9.23;6.20;;;;;;;;;;4987477;28;20061;-68
2022/05/03 10:40:39;;;;;;;16.23;6.22;;;;;;;;;;4987231;28;20150;-68
2022/05/03 10:43:06;;;;;;;6.97;4.78;;;;;;;;;;4978593;28;20085;-69
2022/05/03 10:45:40;;;;;;;8.07;5.65;;;;;;;;;;4995508;28;20388;-68
2022/05/03 10:48:21;;;;;;;8.93;6.07;;;;;;;;;;4987703;28;20050;-68
2022/05/03 10:50:48;;;;;;;10.25;6.43;;;;;;;;;;4966676;28;20018;-68
2022/05/03 10:53:14;;;;;;;11.55;6.80;;;;;;;;;;4987124;28;20057;-69
2022/05/03 10:56:00;;;;;;;9.65;5.60;;;;;;;;;;4986487;28;20026;-68
2022/05/03 10:58:27;;;;;;;9.60;6.38;;;;;;;;;;5020973;28;20045;-69
2022/05/03 11:01:10;;;;;;;8.35;6.32;;;;;;;;;;5031966;28;20044;-69
2022/05/03 11:03:40;;;;;;;11.93;5.82;;;;;;;;;;5035266;28;20020;-69
2022/05/03 11:06:18;;;;;;;10.90;5.55;;;;;;;;;;5052699;28;20017;-68
2022/05/03 11:11:35;;;;;;;9.00;5.10;;;;;;;;;;5049648;28;20557;-68
2022/05/03 11:14:01;;;;;;;15.52;6.40;;;;;;;;;;5049017;28;20029;-69
2022/05/03 11:16:34;;;;;;;8.48;5.45;;;;;;;;;;5033152;28;20086;-69
2022/05/03 11:19:08;;;;;;;9.50;5.95;;;;;;;;;;5043215;28;20009;-68
2022/05/03 11:21:34;;;;;;;11.15;6.13;;;;;;;;;;5049080;28;20055;-68
2022/05/03 11:24:01;;;;;;;10.35;6.25;;;;;;;;;;5049330;28;20123;-68
2022/05/03 11:26:30;;;;;;;8.40;5.72;;;;;;;;;;5013602;28;20042;-69
2022/05/03 11:29:02;;;;;;;9.50;5.90;;;;;;;;;;5010732;28;20048;-68
2022/05/03 11:31:28;;;;;;;10.93;5.20;;;;;;;;;;5029090;28;20041;-68
2022/05/03 11:33:57;;;;;;;12.45;5.13;;;;;;;;;;5023381;28;20024;-68
2022/05/03 11:36:23;;;;;;;11.25;5.00;;;;;;;;;;5027321;28;20022;-68
2022/05/03 11:38:54;;;;;;;7.68;5.07;;;;;;;;;;5029788;28;20032;-68
2022/05/03 11:41:24;;;;;;;8.95;5.43;;;;;;;;;;5010895;28;20525;-68
2022/05/03 11:43:50;;;;;;;8.65;5.75;;;;;;;;;;5028083;28;20433;-68
2022/05/03 11:46:16;;;;;;;7.05;5.10;;;;;;;;;;5028668;28;20025;-68
2022/05/03 11:48:43;;;;;;;8.10;5.47;;;;;;;;;;5011340;28;20120;-68
2022/05/03 11:56:48;;;;;;;8.45;5.10;;;;;;;;;;5032171;28;20036;-68
2022/05/03 11:59:14;;;;;;;6.67;4.20;;;;;;;;;;5032079;28;20025;-68
2022/05/03 12:01:41;;;;;;;9.50;5.03;;;;;;;;;;5032114;28;20091;-68
2022/05/03 12:04:08;;;;;;;8.55;5.60;;;;;;;;;;5016849;28;20105;-68
2022/05/03 12:06:45;;;;;;;8.55;5.75;;;;;;;;;;5024056;28;20026;-68
2022/05/03 12:09:12;;;;;;;7.53;5.15;;;;;;;;;;5014555;28;20487;-69
2022/05/03 12:14:33;;;;;;;8.60;4.25;;;;;;;;;;5025515;28;20044;-69
2022/05/03 12:16:59;;;;;;;7.47;4.03;;;;;;;;;;5009839;28;20025;-68
2022/05/03 12:19:25;;;;;;;5.90;4.45;;;;;;;;;;5004464;28;20116;-69
2022/05/03 12:21:51;;;;;;;8.13;4.72;;;;;;;;;;5008677;28;20047;-68
2022/05/03 12:24:17;;;;;;;9.80;4.60;;;;;;;;;;5014391;28;20030;-69
2022/05/03 12:26:44;;;;;;;4.25;3.33;;;;;;;;;;5024935;28;20044;-68
2022/05/03 12:29:13;;;;;;;4.95;3.45;;;;;;;;;;5048832;28;20063;-70
2022/05/03 12:31:40;;;;;;;6.38;4.18;;;;;;;;;;5042850;28;20014;-69
2022/05/03 12:34:13;;;;;;;7.20;3.88;;;;;;;;;;5044289;28;20104;-68
2022/05/03 12:36:40;;;;;;;6.43;3.72;;;;;;;;;;5028648;28;20478;-69
2022/05/03 12:39:10;;;;;;;6.68;3.60;;;;;;;;;;5034248;28;20029;-68
2022/05/03 12:41:36;;;;;;;4.95;3.47;;;;;;;;;;5031327;28;20024;-68
2022/05/03 12:44:10;;;;;;;17.00;3.53;;;;;;;;;;5032839;28;20045;-68
2022/05/03 12:46:36;;;;;;;3.28;2.95;;;;;;;;;;5035071;28;20078;-68
2022/05/03 12:49:04;;;;;;;5.60;3.50;;;;;;;;;;5034323;28;20506;-68
2022/05/03 12:51:30;;;;;;;7.40;3.25;;;;;;;;;;5035024;28;20029;-68
2022/05/03 12:53:56;;;;;;;7.90;2.90;;;;;;;;;;5053656;28;20025;-68
2022/05/03 12:59:07;;;;;;;3.92;2.78;;;;;;;;;;5037106;28;20067;-68
2022/05/03 13:01:35;;;;;;;3.08;2.17;;;;;;;;;;5047052;28;20029;-68
2022/05/03 13:04:01;;;;;;;4.72;2.67;;;;;;;;;;5046563;28;20028;-68
2022/05/03 13:06:27;;;;;;;5.70;3.00;;;;;;;;;;5032328;28;20029;-69
2022/05/03 13:08:53;;;;;;;2.85;2.30;;;;;;;;;;5051366;28;20029;-69
2022/05/03 13:11:20;;;;;;;4.05;2.72;;;;;;;;;;5023161;28;20125;-68
2022/05/03 13:13:46;;;;;;;4.95;2.67;;;;;;;;;;5027280;28;20042;-68
2022/05/03 13:16:12;;;;;;;9.15;2.90;;;;;;;;;;5025554;28;20555;-69
2022/05/03 13:18:38;;;;;;;4.95;3.00;;;;;;;;;;5050988;28;20029;-69
2022/05/03 13:21:04;;;;;;;9.50;2.88;;;;;;;;;;5051539;28;20021;-68
2022/05/03 13:23:30;;;;;;;6.03;2.70;;;;;;;;;;5051369;28;20105;-69
2022/05/03 13:26:03;;;;;;;5.18;2.20;;;;;;;;;;5050330;28;20055;-69
2022/05/03 13:28:29;;;;;;;6.45;2.75;;;;;;;;;;5050467;28;20037;-69
2022/05/03 13:30:56;;;;;;;5.88;2.53;;;;;;;;;;5026785;28;20029;-69
2022/05/03 13:33:22;;;;;;;4.40;3.08;;;;;;;;;;5033072;28;20132;-70
2022/05/03 13:41:19;;;;;;;5.07;2.80;;;;;;;;;;5045666;28;20410;-69
2022/05/03 13:43:46;;;;;;;10.43;2.70;;;;;;;;;;5041394;28;20021;-69
2022/05/03 13:46:12;;;;;;;5.63;2.95;;;;;;;;;;5043374;28;20017;-69
2022/05/03 13:48:38;;;;;;;5.22;2.95;;;;;;;;;;5050193;28;20724;-68
2022/05/03 13:51:05;;;;;;;5.97;2.85;;;;;;;;;;5023535;28;20037;-68
2022/05/03 13:53:31;;;;;;;5.45;2.67;;;;;;;;;;5040757;28;20170;-69
2022/05/03 13:55:58;;;;;;;8.15;3.33;;;;;;;;;;5021947;28;20025;-68
2022/05/03 13:58:24;;;;;;;4.30;2.83;;;;;;;;;;5015905;28;20038;-70
2022/05/03 14:00:51;;;;;;;2.78;2.42;;;;;;;;;;5042947;28;20025;-69
2022/05/03 14:03:17;;;;;;;5.90;2.80;;;;;;;;;;5021596;28;20025;-69
2022/05/03 14:05:44;;;;;;;3.83;2.70;;;;;;;;;;5049265;28;20021;-70
2022/05/03 14:08:10;;;;;;;9.50;2.88;;;;;;;;;;5050029;28;20082;-69
2022/05/03 14:10:40;;;;;;;8.88;3.67;;;;;;;;;;5049867;28;20099;-69
2022/05/03 14:13:06;;;;;;;7.07;2.83;;;;;;;;;;5024635;28;20018;-69
2022/05/03 14:15:32;;;;;;;2.95;2.58;;;;;;;;;;5018802;28;20130;-69
2022/05/03 14:17:58;;;;;;;4.07;3.00;;;;;;;;;;5049640;28;20055;-69
2022/05/03 14:20:25;;;;;;;4.15;2.45;;;;;;;;;;5049263;28;20433;-71
2022/05/03 14:22:51;;;;;;;5.00;2.35;;;;;;;;;;5049660;28;20013;-69
2022/05/03 14:25:17;;;;;;;5.38;3.15;;;;;;;;;;5040442;28;20064;-68
2022/05/03 14:27:44;;;;;;;7.88;2.30;;;;;;;;;;5016023;28;20036;-68
2022/05/03 14:30:10;;;;;;;6.35;2.95;;;;;;;;;;5031493;28;20036;-69
2022/05/03 14:32:37;;;;;;;3.97;2.90;;;;;;;;;;5041274;28;20512;-68
2022/05/03 14:35:04;;;;;;;5.28;3.08;;;;;;;;;;5049467;28;20409;-69
2022/05/03 14:37:30;;;;;;;8.70;2.63;;;;;;;;;;5046204;28;20509;-69
2022/05/03 14:39:56;;;;;;;4.00;2.65;;;;;;;;;;5044266;28;20075;-68
2022/05/03 14:42:23;;;;;;;3.25;2.00;;;;;;;;;;5049285;28;20048;-69
2022/05/03 14:44:49;;;;;;;6.13;2.75;;;;;;;;;;5038901;28;20030;-69
2022/05/03 14:47:17;;;;;;;4.00;2.38;;;;;;;;;;5025180;28;20017;-69
2022/05/03 14:49:44;;;;;;;3.92;1.95;;;;;;;;;;5041292;28;20030;-68
2022/05/03 14:52:12;;;;;;;2.95;2.00;;;;;;;;;;5032795;28;20024;-68
2022/05/03 14:54:38;;;;;;;6.57;2.28;;;;;;;;;;5023324;28;20071;-69
2022/05/03 15:05:21;;;;;;;4.13;2.42;;;;;;;;;;5049193;28;20497;-68
2022/05/03 15:07:49;;;;;;;2.40;2.13;;;;;;;;;;5030365;28;20025;-68
2022/05/03 15:10:16;;;;;;;9.45;2.50;;;;;;;;;;5049213;28;20025;-68
2022/05/03 15:12:42;;;;;;;4.70;2.35;;;;;;;;;;5011802;28;20014;-68
2022/05/03 15:15:09;;;;;;;6.15;2.30;;;;;;;;;;5006197;28;20430;-68
2022/05/03 15:17:35;;;;;;;5.45;2.00;;;;;;;;;;5026764;28;20022;-68
2022/05/03 15:20:02;;;;;;;3.42;2.00;;;;;;;;;;5026477;28;20021;-68
2022/05/03 15:25:13;;;;;;;13.10;2.55;;;;;;;;;;5041430;28;20039;-69
2022/05/03 15:27:39;;;;;;;9.57;3.50;;;;;;;;;;5024042;28;20025;-68
2022/05/03 15:30:06;;;;;;;13.65;3.95;;;;;;;;;;5044746;28;20030;-68
2022/05/03 15:32:40;;;;;;;10.65;4.68;;;;;;;;;;5033749;28;21148;-69
2022/05/03 15:35:21;;;;;;;19.10;5.40;;;;;;;;;;5033966;28;20116;-68
2022/05/03 15:37:47;;;;;;;18.02;6.57;;;;;;;;;;5026021;28;20046;-68
2022/05/03 15:40:14;;;;;;;15.05;4.78;;;;;;;;;;5018948;28;20026;-68
2022/05/03 15:42:41;;;;;;;24.10;6.07;;;;;;;;;;5030582;28;20045;-67
2022/05/03 15:45:08;;;;;;;13.90;5.18;;;;;;;;;;5016961;28;20042;-68